sensor_id;sensor_type;location;lat;lon;timestamp;P1;durP1;ratioP1;P2;durP2;ratioP2
21729;SDS011;11027;51.030;13.812;2023-06-10T00:01:50;8.60;;;5.40;;
21729;SDS011;11027;51.030;13.812;2023-06-10T00:04:15;6.95;;;5.32;;
21729;SDS011;11027;51.030;13.812;2023-06-10T00:06:41;8.85;;;5.22;;
21729;SDS011;11027;51.030;13.812;2023-06-10T00:09:08;7.07;;;5.10;;
21729;SDS011;11027;51.030;13.812;2023-06-10T00:11:35;9.68;;;5.07;;
21729;SDS011;11027;51.030;13.812;2023-06-10T00:14:01;5.30;;;4.75;;
21729;SDS011;11027;51.030;13.812;2023-06-10T00:16:26;7.05;;;5.10;;
21729;SDS011;11027;51.030;13.812;2023-06-10T00:18:52;7.28;;;5.63;;
21729;SDS011;11027;51.030;13.812;2023-06-10T00:21:17;8.50;;;5.25;;
21729;SDS011;11027;51.030;13.812;2023-06-10T00:23:44;7.05;;;5.88;;
21729;SDS011;11027;51.030;13.812;2023-06-10T00:26:09;8.82;;;6.20;;
21729;SDS011;11027;51.030;13.812;2023-06-10T00:28:35;9.52;;;6.00;;
21729;SDS011;11027;51.030;13.812;2023-06-10T00:31:00;10.55;;;6.18;;
21729;SDS011;11027;51.030;13.812;2023-06-10T00:33:26;9.10;;;5.93;;
21729;SDS011;11027;51.030;13.812;2023-06-10T00:35:51;10.60;;;5.68;;
21729;SDS011;11027;51.030;13.812;2023-06-10T00:38:16;8.30;;;5.60;;
21729;SDS011;11027;51.030;13.812;2023-06-10T00:40:42;10.85;;;5.63;;
21729;SDS011;11027;51.030;13.812;2023-06-10T00:43:07;5.97;;;5.07;;
21729;SDS011;11027;51.030;13.812;2023-06-10T00:45:33;9.18;;;5.30;;
21729;SDS011;11027;51.030;13.812;2023-06-10T00:47:59;5.85;;;4.70;;
21729;SDS011;11027;51.030;13.812;2023-06-10T00:50:25;7.25;;;5.20;;
21729;SDS011;11027;51.030;13.812;2023-06-10T00:52:50;8.63;;;5.45;;
21729;SDS011;11027;51.030;13.812;2023-06-10T00:55:16;6.75;;;5.20;;
21729;SDS011;11027;51.030;13.812;2023-06-10T00:57:42;7.35;;;6.28;;
21729;SDS011;11027;51.030;13.812;2023-06-10T01:00:09;7.22;;;6.35;;
21729;SDS011;11027;51.030;13.812;2023-06-10T01:02:35;9.07;;;6.60;;
21729;SDS011;11027;51.030;13.812;2023-06-10T01:05:01;7.57;;;6.85;;
21729;SDS011;11027;51.030;13.812;2023-06-10T01:10:31;8.43;;;6.82;;
21729;SDS011;11027;51.030;13.812;2023-06-10T01:13:00;7.32;;;6.40;;
21729;SDS011;11027;51.030;13.812;2023-06-10T01:15:28;10.68;;;6.38;;
21729;SDS011;11027;51.030;13.812;2023-06-10T01:18:29;7.68;;;6.50;;
21729;SDS011;11027;51.030;13.812;2023-06-10T01:20:47;8.30;;;6.50;;
21729;SDS011;11027;51.030;13.812;2023-06-10T01:23:13;7.40;;;6.05;;
21729;SDS011;11027;51.030;13.812;2023-06-10T01:25:40;7.72;;;6.53;;
21729;SDS011;11027;51.030;13.812;2023-06-10T01:30:45;6.97;;;6.28;;
21729;SDS011;11027;51.030;13.812;2023-06-10T01:33:17;7.53;;;6.80;;
21729;SDS011;11027;51.030;13.812;2023-06-10T01:38:12;8.48;;;6.38;;
21729;SDS011;11027;51.030;13.812;2023-06-10T01:40:39;9.50;;;6.28;;
21729;SDS011;11027;51.030;13.812;2023-06-10T01:43:05;7.55;;;6.53;;
21729;SDS011;11027;51.030;13.812;2023-06-10T01:45:31;9.02;;;6.35;;
21729;SDS011;11027;51.030;13.812;2023-06-10T01:47:56;9.77;;;7.05;;
21729;SDS011;11027;51.030;13.812;2023-06-10T01:50:21;7.13;;;6.43;;
21729;SDS011;11027;51.030;13.812;2023-06-10T01:52:47;8.13;;;6.55;;
21729;SDS011;11027;51.030;13.812;2023-06-10T01:55:12;8.02;;;6.80;;
21729;SDS011;11027;51.030;13.812;2023-06-10T01:57:37;8.38;;;6.50;;
21729;SDS011;11027;51.030;13.812;2023-06-10T02:00:03;8.48;;;6.85;;
21729;SDS011;11027;51.030;13.812;2023-06-10T02:02:28;9.25;;;6.10;;
21729;SDS011;11027;51.030;13.812;2023-06-10T02:04:53;8.13;;;7.00;;
21729;SDS011;11027;51.030;13.812;2023-06-10T02:07:19;10.88;;;6.90;;
21729;SDS011;11027;51.030;13.812;2023-06-10T02:09:44;9.13;;;6.65;;
21729;SDS011;11027;51.030;13.812;2023-06-10T02:12:09;8.63;;;6.70;;
21729;SDS011;11027;51.030;13.812;2023-06-10T02:14:35;8.88;;;7.32;;
21729;SDS011;11027;51.030;13.812;2023-06-10T02:17:01;8.90;;;6.93;;
21729;SDS011;11027;51.030;13.812;2023-06-10T02:19:26;10.50;;;6.70;;
21729;SDS011;11027;51.030;13.812;2023-06-10T02:21:52;8.43;;;6.85;;
21729;SDS011;11027;51.030;13.812;2023-06-10T02:24:17;7.97;;;6.95;;
21729;SDS011;11027;51.030;13.812;2023-06-10T02:26:43;7.70;;;6.63;;
21729;SDS011;11027;51.030;13.812;2023-06-10T02:29:08;7.28;;;6.57;;
21729;SDS011;11027;51.030;13.812;2023-06-10T02:31:33;10.60;;;7.00;;
21729;SDS011;11027;51.030;13.812;2023-06-10T02:34:00;10.60;;;6.88;;
21729;SDS011;11027;51.030;13.812;2023-06-10T02:36:26;9.15;;;7.38;;
21729;SDS011;11027;51.030;13.812;2023-06-10T02:38:52;8.27;;;6.32;;
21729;SDS011;11027;51.030;13.812;2023-06-10T02:41:17;10.75;;;7.28;;
21729;SDS011;11027;51.030;13.812;2023-06-10T02:43:43;8.00;;;7.18;;
21729;SDS011;11027;51.030;13.812;2023-06-10T02:46:08;7.55;;;6.85;;
21729;SDS011;11027;51.030;13.812;2023-06-10T02:48:40;10.13;;;7.45;;
21729;SDS011;11027;51.030;13.812;2023-06-10T02:51:06;8.00;;;7.30;;
21729;SDS011;11027;51.030;13.812;2023-06-10T02:53:31;9.52;;;7.20;;
21729;SDS011;11027;51.030;13.812;2023-06-10T02:55:56;11.27;;;7.60;;
21729;SDS011;11027;51.030;13.812;2023-06-10T02:58:22;8.55;;;7.22;;
21729;SDS011;11027;51.030;13.812;2023-06-10T03:00:47;12.60;;;7.38;;
21729;SDS011;11027;51.030;13.812;2023-06-10T03:03:12;7.75;;;7.03;;
21729;SDS011;11027;51.030;13.812;2023-06-10T03:05:38;10.63;;;8.00;;
21729;SDS011;11027;51.030;13.812;2023-06-10T03:08:03;10.68;;;7.40;;
21729;SDS011;11027;51.030;13.812;2023-06-10T03:10:29;8.32;;;7.45;;
21729;SDS011;11027;51.030;13.812;2023-06-10T03:12:54;12.02;;;8.20;;
21729;SDS011;11027;51.030;13.812;2023-06-10T03:15:19;10.77;;;8.00;;
21729;SDS011;11027;51.030;13.812;2023-06-10T03:17:45;9.38;;;7.80;;
21729;SDS011;11027;51.030;13.812;2023-06-10T03:20:11;7.43;;;6.43;;
21729;SDS011;11027;51.030;13.812;2023-06-10T03:22:37;9.27;;;6.38;;
21729;SDS011;11027;51.030;13.812;2023-06-10T03:25:03;8.40;;;6.93;;
21729;SDS011;11027;51.030;13.812;2023-06-10T03:27:29;10.07;;;7.15;;
21729;SDS011;11027;51.030;13.812;2023-06-10T03:29:55;9.18;;;6.47;;
21729;SDS011;11027;51.030;13.812;2023-06-10T03:32:20;7.90;;;7.10;;
21729;SDS011;11027;51.030;13.812;2023-06-10T03:34:46;7.80;;;6.93;;
21729;SDS011;11027;51.030;13.812;2023-06-10T03:37:12;8.63;;;6.80;;
21729;SDS011;11027;51.030;13.812;2023-06-10T03:39:37;9.25;;;6.70;;
21729;SDS011;11027;51.030;13.812;2023-06-10T03:42:03;12.82;;;6.85;;
21729;SDS011;11027;51.030;13.812;2023-06-10T03:44:28;6.90;;;6.25;;
21729;SDS011;11027;51.030;13.812;2023-06-10T03:46:54;7.53;;;6.80;;
21729;SDS011;11027;51.030;13.812;2023-06-10T03:49:20;8.15;;;6.38;;
21729;SDS011;11027;51.030;13.812;2023-06-10T03:51:45;9.00;;;7.60;;
21729;SDS011;11027;51.030;13.812;2023-06-10T03:54:10;9.88;;;7.00;;
21729;SDS011;11027;51.030;13.812;2023-06-10T03:56:36;10.13;;;7.30;;
21729;SDS011;11027;51.030;13.812;2023-06-10T03:59:01;7.70;;;6.88;;
21729;SDS011;11027;51.030;13.812;2023-06-10T04:01:26;7.63;;;6.82;;
21729;SDS011;11027;51.030;13.812;2023-06-10T04:03:52;7.82;;;7.03;;
21729;SDS011;11027;51.030;13.812;2023-06-10T04:06:19;8.02;;;7.22;;
21729;SDS011;11027;51.030;13.812;2023-06-10T04:08:47;8.20;;;7.40;;
21729;SDS011;11027;51.030;13.812;2023-06-10T04:11:12;8.90;;;8.00;;
21729;SDS011;11027;51.030;13.812;2023-06-10T04:13:38;8.93;;;7.25;;
21729;SDS011;11027;51.030;13.812;2023-06-10T04:16:03;8.73;;;6.80;;
21729;SDS011;11027;51.030;13.812;2023-06-10T04:18:28;7.43;;;6.72;;
21729;SDS011;11027;51.030;13.812;2023-06-10T04:20:54;8.57;;;6.95;;
21729;SDS011;11027;51.030;13.812;2023-06-10T04:23:19;9.45;;;6.55;;
21729;SDS011;11027;51.030;13.812;2023-06-10T04:25:44;12.35;;;6.65;;
21729;SDS011;11027;51.030;13.812;2023-06-10T04:28:10;8.52;;;6.53;;
21729;SDS011;11027;51.030;13.812;2023-06-10T04:30:35;8.25;;;6.40;;
21729;SDS011;11027;51.030;13.812;2023-06-10T04:33:00;9.45;;;6.82;;
21729;SDS011;11027;51.030;13.812;2023-06-10T04:35:25;7.20;;;6.45;;
21729;SDS011;11027;51.030;13.812;2023-06-10T04:37:53;8.90;;;6.82;;
21729;SDS011;11027;51.030;13.812;2023-06-10T04:40:19;6.85;;;6.25;;
21729;SDS011;11027;51.030;13.812;2023-06-10T04:42:44;11.13;;;6.82;;
21729;SDS011;11027;51.030;13.812;2023-06-10T04:45:10;7.32;;;6.32;;
21729;SDS011;11027;51.030;13.812;2023-06-10T04:47:35;9.40;;;6.93;;
21729;SDS011;11027;51.030;13.812;2023-06-10T04:50:01;7.60;;;6.68;;
21729;SDS011;11027;51.030;13.812;2023-06-10T04:52:27;10.48;;;7.20;;
21729;SDS011;11027;51.030;13.812;2023-06-10T04:54:52;11.48;;;7.57;;
21729;SDS011;11027;51.030;13.812;2023-06-10T04:57:18;9.55;;;7.90;;
21729;SDS011;11027;51.030;13.812;2023-06-10T04:59:45;9.82;;;7.13;;
21729;SDS011;11027;51.030;13.812;2023-06-10T05:02:10;9.38;;;7.20;;
21729;SDS011;11027;51.030;13.812;2023-06-10T05:04:35;15.45;;;7.40;;
21729;SDS011;11027;51.030;13.812;2023-06-10T05:07:01;7.93;;;7.13;;
21729;SDS011;11027;51.030;13.812;2023-06-10T05:09:26;8.90;;;6.53;;
21729;SDS011;11027;51.030;13.812;2023-06-10T05:11:51;8.52;;;6.65;;
21729;SDS011;11027;51.030;13.812;2023-06-10T05:14:18;12.48;;;7.13;;
21729;SDS011;11027;51.030;13.812;2023-06-10T05:16:45;8.07;;;7.20;;
21729;SDS011;11027;51.030;13.812;2023-06-10T05:19:10;8.00;;;7.20;;
21729;SDS011;11027;51.030;13.812;2023-06-10T05:21:36;7.68;;;6.97;;
21729;SDS011;11027;51.030;13.812;2023-06-10T05:24:01;9.10;;;7.05;;
21729;SDS011;11027;51.030;13.812;2023-06-10T05:26:27;8.18;;;6.88;;
21729;SDS011;11027;51.030;13.812;2023-06-10T05:28:52;10.65;;;6.93;;
21729;SDS011;11027;51.030;13.812;2023-06-10T05:31:18;7.97;;;6.88;;
21729;SDS011;11027;51.030;13.812;2023-06-10T05:33:43;13.48;;;7.22;;
21729;SDS011;11027;51.030;13.812;2023-06-10T05:36:08;9.73;;;7.50;;
21729;SDS011;11027;51.030;13.812;2023-06-10T05:38:33;7.93;;;6.78;;
21729;SDS011;11027;51.030;13.812;2023-06-10T05:40:59;10.85;;;7.15;;
21729;SDS011;11027;51.030;13.812;2023-06-10T05:43:24;7.65;;;6.95;;
21729;SDS011;11027;51.030;13.812;2023-06-10T05:45:49;7.55;;;6.85;;
21729;SDS011;11027;51.030;13.812;2023-06-10T05:48:15;9.98;;;6.75;;
21729;SDS011;11027;51.030;13.812;2023-06-10T05:50:40;8.00;;;7.20;;
21729;SDS011;11027;51.030;13.812;2023-06-10T05:53:07;9.35;;;6.80;;
21729;SDS011;11027;51.030;13.812;2023-06-10T05:55:39;9.95;;;6.65;;
21729;SDS011;11027;51.030;13.812;2023-06-10T05:58:05;9.80;;;7.07;;
21729;SDS011;11027;51.030;13.812;2023-06-10T06:00:30;8.63;;;6.82;;
21729;SDS011;11027;51.030;13.812;2023-06-10T06:02:55;8.48;;;7.22;;
21729;SDS011;11027;51.030;13.812;2023-06-10T06:05:22;7.45;;;6.70;;
21729;SDS011;11027;51.030;13.812;2023-06-10T06:07:47;7.60;;;6.88;;
21729;SDS011;11027;51.030;13.812;2023-06-10T06:10:12;8.40;;;6.90;;
21729;SDS011;11027;51.030;13.812;2023-06-10T06:12:38;10.52;;;7.03;;
21729;SDS011;11027;51.030;13.812;2023-06-10T06:15:03;7.85;;;7.15;;
21729;SDS011;11027;51.030;13.812;2023-06-10T06:17:29;9.32;;;7.07;;
21729;SDS011;11027;51.030;13.812;2023-06-10T06:19:54;8.68;;;6.30;;
21729;SDS011;11027;51.030;13.812;2023-06-10T06:22:19;6.93;;;6.25;;
21729;SDS011;11027;51.030;13.812;2023-06-10T06:24:47;6.88;;;6.18;;
21729;SDS011;11027;51.030;13.812;2023-06-10T06:27:12;7.75;;;6.97;;
21729;SDS011;11027;51.030;13.812;2023-06-10T06:29:37;13.80;;;7.72;;
21729;SDS011;11027;51.030;13.812;2023-06-10T06:32:02;9.80;;;6.57;;
21729;SDS011;11027;51.030;13.812;2023-06-10T06:34:28;8.70;;;7.75;;
21729;SDS011;11027;51.030;13.812;2023-06-10T06:36:53;8.55;;;6.78;;
21729;SDS011;11027;51.030;13.812;2023-06-10T06:39:18;9.93;;;6.60;;
21729;SDS011;11027;51.030;13.812;2023-06-10T06:41:44;7.47;;;6.65;;
21729;SDS011;11027;51.030;13.812;2023-06-10T06:44:09;8.77;;;6.18;;
21729;SDS011;11027;51.030;13.812;2023-06-10T06:46:34;6.72;;;6.00;;
21729;SDS011;11027;51.030;13.812;2023-06-10T06:48:59;10.23;;;6.55;;
21729;SDS011;11027;51.030;13.812;2023-06-10T06:51:25;8.82;;;6.60;;
21729;SDS011;11027;51.030;13.812;2023-06-10T06:53:50;7.68;;;6.30;;
21729;SDS011;11027;51.030;13.812;2023-06-10T06:56:16;7.15;;;6.10;;
21729;SDS011;11027;51.030;13.812;2023-06-10T06:58:41;7.00;;;6.30;;
21729;SDS011;11027;51.030;13.812;2023-06-10T07:01:06;6.35;;;5.57;;
21729;SDS011;11027;51.030;13.812;2023-06-10T07:03:32;6.50;;;5.35;;
21729;SDS011;11027;51.030;13.812;2023-06-10T07:05:57;5.90;;;5.20;;
21729;SDS011;11027;51.030;13.812;2023-06-10T07:08:22;6.65;;;5.20;;
21729;SDS011;11027;51.030;13.812;2023-06-10T07:10:47;6.40;;;5.10;;
21729;SDS011;11027;51.030;13.812;2023-06-10T07:13:14;5.57;;;4.55;;
21729;SDS011;11027;51.030;13.812;2023-06-10T07:15:39;5.78;;;5.00;;
21729;SDS011;11027;51.030;13.812;2023-06-10T07:18:04;5.05;;;4.50;;
21729;SDS011;11027;51.030;13.812;2023-06-10T07:20:29;8.90;;;5.25;;
21729;SDS011;11027;51.030;13.812;2023-06-10T07:22:55;8.38;;;4.82;;
21729;SDS011;11027;51.030;13.812;2023-06-10T07:25:20;5.57;;;4.70;;
21729;SDS011;11027;51.030;13.812;2023-06-10T07:27:45;8.07;;;4.65;;
21729;SDS011;11027;51.030;13.812;2023-06-10T07:30:11;9.40;;;4.97;;
21729;SDS011;11027;51.030;13.812;2023-06-10T07:32:36;8.25;;;5.35;;
21729;SDS011;11027;51.030;13.812;2023-06-10T07:35:02;6.00;;;4.30;;
21729;SDS011;11027;51.030;13.812;2023-06-10T07:37:27;5.40;;;4.85;;
21729;SDS011;11027;51.030;13.812;2023-06-10T07:39:52;5.32;;;4.65;;
21729;SDS011;11027;51.030;13.812;2023-06-10T07:42:18;10.80;;;5.20;;
21729;SDS011;11027;51.030;13.812;2023-06-10T07:44:43;5.65;;;4.47;;
21729;SDS011;11027;51.030;13.812;2023-06-10T07:47:08;7.57;;;4.70;;
21729;SDS011;11027;51.030;13.812;2023-06-10T07:49:33;5.75;;;5.03;;
21729;SDS011;11027;51.030;13.812;2023-06-10T07:51:59;6.28;;;4.38;;
21729;SDS011;11027;51.030;13.812;2023-06-10T07:54:24;9.23;;;4.40;;
21729;SDS011;11027;51.030;13.812;2023-06-10T07:56:49;6.57;;;4.55;;
21729;SDS011;11027;51.030;13.812;2023-06-10T07:59:17;10.10;;;4.50;;
21729;SDS011;11027;51.030;13.812;2023-06-10T08:01:42;7.82;;;5.20;;
21729;SDS011;11027;51.030;13.812;2023-06-10T08:04:07;7.45;;;5.28;;
21729;SDS011;11027;51.030;13.812;2023-06-10T08:06:33;6.28;;;4.78;;
21729;SDS011;11027;51.030;13.812;2023-06-10T08:08:58;4.78;;;4.18;;
21729;SDS011;11027;51.030;13.812;2023-06-10T08:11:24;7.95;;;5.15;;
21729;SDS011;11027;51.030;13.812;2023-06-10T08:13:53;8.35;;;7.40;;
21729;SDS011;11027;51.030;13.812;2023-06-10T08:16:18;5.03;;;4.53;;
21729;SDS011;11027;51.030;13.812;2023-06-10T08:18:43;6.20;;;5.03;;
21729;SDS011;11027;51.030;13.812;2023-06-10T08:21:08;6.80;;;4.88;;
21729;SDS011;11027;51.030;13.812;2023-06-10T08:23:34;7.93;;;5.00;;
21729;SDS011;11027;51.030;13.812;2023-06-10T08:25:59;7.53;;;5.00;;
21729;SDS011;11027;51.030;13.812;2023-06-10T08:28:24;6.15;;;5.18;;
21729;SDS011;11027;51.030;13.812;2023-06-10T08:30:49;5.55;;;4.75;;
21729;SDS011;11027;51.030;13.812;2023-06-10T08:33:15;6.90;;;5.75;;
21729;SDS011;11027;51.030;13.812;2023-06-10T08:35:40;7.47;;;5.00;;
21729;SDS011;11027;51.030;13.812;2023-06-10T08:38:05;5.25;;;4.75;;
21729;SDS011;11027;51.030;13.812;2023-06-10T08:40:31;9.93;;;5.05;;
21729;SDS011;11027;51.030;13.812;2023-06-10T08:43:08;9.20;;;5.35;;
21729;SDS011;11027;51.030;13.812;2023-06-10T08:45:41;7.25;;;5.05;;
21729;SDS011;11027;51.030;13.812;2023-06-10T08:48:12;8.60;;;5.07;;
21729;SDS011;11027;51.030;13.812;2023-06-10T08:50:41;9.02;;;5.18;;
21729;SDS011;11027;51.030;13.812;2023-06-10T08:53:07;7.40;;;5.15;;
21729;SDS011;11027;51.030;13.812;2023-06-10T08:55:35;6.40;;;5.70;;
21729;SDS011;11027;51.030;13.812;2023-06-10T08:58:02;11.05;;;5.90;;
21729;SDS011;11027;51.030;13.812;2023-06-10T09:00:29;5.47;;;4.40;;
21729;SDS011;11027;51.030;13.812;2023-06-10T09:02:55;5.40;;;4.72;;
21729;SDS011;11027;51.030;13.812;2023-06-10T09:05:21;8.13;;;4.95;;
21729;SDS011;11027;51.030;13.812;2023-06-10T09:07:47;6.82;;;4.78;;
21729;SDS011;11027;51.030;13.812;2023-06-10T09:10:13;8.80;;;4.25;;
21729;SDS011;11027;51.030;13.812;2023-06-10T09:12:38;7.43;;;4.40;;
21729;SDS011;11027;51.030;13.812;2023-06-10T09:15:04;6.88;;;4.88;;
21729;SDS011;11027;51.030;13.812;2023-06-10T09:17:30;5.20;;;4.28;;
21729;SDS011;11027;51.030;13.812;2023-06-10T09:19:56;6.05;;;3.97;;
21729;SDS011;11027;51.030;13.812;2023-06-10T09:22:22;6.50;;;4.10;;
21729;SDS011;11027;51.030;13.812;2023-06-10T09:24:48;7.60;;;4.40;;
21729;SDS011;11027;51.030;13.812;2023-06-10T09:27:14;5.00;;;4.43;;
21729;SDS011;11027;51.030;13.812;2023-06-10T09:29:46;5.70;;;4.88;;
21729;SDS011;11027;51.030;13.812;2023-06-10T09:32:13;5.10;;;4.13;;
21729;SDS011;11027;51.030;13.812;2023-06-10T09:34:38;10.00;;;4.30;;
21729;SDS011;11027;51.030;13.812;2023-06-10T09:37:04;6.70;;;3.70;;
21729;SDS011;11027;51.030;13.812;2023-06-10T09:39:29;6.82;;;4.00;;
21729;SDS011;11027;51.030;13.812;2023-06-10T09:41:55;6.15;;;3.72;;
21729;SDS011;11027;51.030;13.812;2023-06-10T09:44:20;4.18;;;3.67;;
21729;SDS011;11027;51.030;13.812;2023-06-10T09:46:47;5.05;;;4.30;;
21729;SDS011;11027;51.030;13.812;2023-06-10T09:49:15;4.53;;;4.13;;
21729;SDS011;11027;51.030;13.812;2023-06-10T09:51:51;7.72;;;4.28;;
21729;SDS011;11027;51.030;13.812;2023-06-10T09:54:18;8.35;;;4.10;;
21729;SDS011;11027;51.030;13.812;2023-06-10T09:56:46;5.30;;;4.13;;
21729;SDS011;11027;51.030;13.812;2023-06-10T09:59:12;6.82;;;4.18;;
21729;SDS011;11027;51.030;13.812;2023-06-10T10:01:38;9.02;;;4.07;;
21729;SDS011;11027;51.030;13.812;2023-06-10T10:04:03;6.75;;;3.85;;
21729;SDS011;11027;51.030;13.812;2023-06-10T10:06:28;4.10;;;3.65;;
21729;SDS011;11027;51.030;13.812;2023-06-10T10:08:54;4.20;;;3.58;;
21729;SDS011;11027;51.030;13.812;2023-06-10T10:11:20;5.80;;;4.55;;
21729;SDS011;11027;51.030;13.812;2023-06-10T10:13:50;6.00;;;3.88;;
21729;SDS011;11027;51.030;13.812;2023-06-10T10:16:17;7.05;;;3.90;;
21729;SDS011;11027;51.030;13.812;2023-06-10T10:18:46;9.73;;;3.58;;
21729;SDS011;11027;51.030;13.812;2023-06-10T10:21:16;7.35;;;3.65;;
21729;SDS011;11027;51.030;13.812;2023-06-10T10:23:48;6.35;;;4.75;;
21729;SDS011;11027;51.030;13.812;2023-06-10T10:26:16;7.03;;;4.60;;
21729;SDS011;11027;51.030;13.812;2023-06-10T10:28:46;7.93;;;5.35;;
21729;SDS011;11027;51.030;13.812;2023-06-10T10:31:16;7.88;;;4.07;;
21729;SDS011;11027;51.030;13.812;2023-06-10T10:36:25;5.32;;;4.35;;
21729;SDS011;11027;51.030;13.812;2023-06-10T10:38:52;5.90;;;3.80;;
21729;SDS011;11027;51.030;13.812;2023-06-10T10:41:18;6.05;;;3.92;;
21729;SDS011;11027;51.030;13.812;2023-06-10T10:43:45;4.22;;;3.80;;
21729;SDS011;11027;51.030;13.812;2023-06-10T10:46:12;4.78;;;3.75;;
21729;SDS011;11027;51.030;13.812;2023-06-10T10:48:39;3.80;;;3.22;;
21729;SDS011;11027;51.030;13.812;2023-06-10T10:51:11;7.18;;;3.30;;
21729;SDS011;11027;51.030;13.812;2023-06-10T10:53:37;5.18;;;3.80;;
21729;SDS011;11027;51.030;13.812;2023-06-10T10:58:39;6.55;;;3.53;;
21729;SDS011;11027;51.030;13.812;2023-06-10T11:01:11;6.70;;;3.70;;
21729;SDS011;11027;51.030;13.812;2023-06-10T11:03:43;6.80;;;3.67;;
21729;SDS011;11027;51.030;13.812;2023-06-10T11:06:13;5.72;;;3.63;;
21729;SDS011;11027;51.030;13.812;2023-06-10T11:11:24;4.80;;;3.40;;
21729;SDS011;11027;51.030;13.812;2023-06-10T11:16:29;6.95;;;3.70;;
21729;SDS011;11027;51.030;13.812;2023-06-10T11:18:55;5.00;;;3.80;;
21729;SDS011;11027;51.030;13.812;2023-06-10T11:21:20;6.90;;;3.80;;
21729;SDS011;11027;51.030;13.812;2023-06-10T11:23:47;6.68;;;4.18;;
21729;SDS011;11027;51.030;13.812;2023-06-10T11:31:22;4.50;;;3.90;;
21729;SDS011;11027;51.030;13.812;2023-06-10T11:34:13;3.75;;;3.25;;
21729;SDS011;11027;51.030;13.812;2023-06-10T11:36:38;8.50;;;4.45;;
21729;SDS011;11027;51.030;13.812;2023-06-10T11:39:05;4.72;;;3.97;;
21729;SDS011;11027;51.030;13.812;2023-06-10T11:41:32;6.05;;;3.78;;
21729;SDS011;11027;51.030;13.812;2023-06-10T11:44:02;8.38;;;4.30;;
21729;SDS011;11027;51.030;13.812;2023-06-10T11:46:29;4.65;;;3.60;;
21729;SDS011;11027;51.030;13.812;2023-06-10T11:48:55;4.32;;;3.70;;
21729;SDS011;11027;51.030;13.812;2023-06-10T11:51:25;6.65;;;3.30;;
21729;SDS011;11027;51.030;13.812;2023-06-10T11:53:52;5.93;;;3.47;;
21729;SDS011;11027;51.030;13.812;2023-06-10T11:56:24;6.85;;;3.80;;
21729;SDS011;11027;51.030;13.812;2023-06-10T11:58:54;9.55;;;3.60;;
21729;SDS011;11027;51.030;13.812;2023-06-10T12:01:21;10.05;;;3.78;;
21729;SDS011;11027;51.030;13.812;2023-06-10T12:03:55;7.15;;;3.40;;
21729;SDS011;11027;51.030;13.812;2023-06-10T12:06:44;5.35;;;3.55;;
21729;SDS011;11027;51.030;13.812;2023-06-10T12:09:17;10.38;;;3.83;;
21729;SDS011;11027;51.030;13.812;2023-06-10T12:11:43;7.97;;;3.63;;
21729;SDS011;11027;51.030;13.812;2023-06-10T12:14:09;3.60;;;3.10;;
21729;SDS011;11027;51.030;13.812;2023-06-10T12:16:34;7.20;;;3.90;;
21729;SDS011;11027;51.030;13.812;2023-06-10T12:19:03;9.45;;;3.58;;
21729;SDS011;11027;51.030;13.812;2023-06-10T12:21:31;6.70;;;3.63;;
21729;SDS011;11027;51.030;13.812;2023-06-10T12:24:01;6.30;;;3.78;;
21729;SDS011;11027;51.030;13.812;2023-06-10T12:26:35;3.78;;;3.20;;
21729;SDS011;11027;51.030;13.812;2023-06-10T12:29:02;7.68;;;3.22;;
21729;SDS011;11027;51.030;13.812;2023-06-10T12:36:58;5.18;;;3.40;;
21729;SDS011;11027;51.030;13.812;2023-06-10T12:39:23;4.18;;;3.50;;
21729;SDS011;11027;51.030;13.812;2023-06-10T12:41:49;4.93;;;3.80;;
21729;SDS011;11027;51.030;13.812;2023-06-10T12:44:15;4.97;;;3.33;;
21729;SDS011;11027;51.030;13.812;2023-06-10T12:46:41;6.78;;;3.60;;
21729;SDS011;11027;51.030;13.812;2023-06-10T12:49:06;7.90;;;3.50;;
21729;SDS011;11027;51.030;13.812;2023-06-10T12:51:32;7.20;;;3.38;;
21729;SDS011;11027;51.030;13.812;2023-06-10T12:53:59;6.65;;;3.90;;
21729;SDS011;11027;51.030;13.812;2023-06-10T12:56:24;5.40;;;3.33;;
21729;SDS011;11027;51.030;13.812;2023-06-10T12:58:49;8.10;;;3.40;;
21729;SDS011;11027;51.030;13.812;2023-06-10T13:01:15;5.60;;;3.23;;
21729;SDS011;11027;51.030;13.812;2023-06-10T13:03:40;5.97;;;3.50;;
21729;SDS011;11027;51.030;13.812;2023-06-10T13:06:05;4.43;;;3.35;;
21729;SDS011;11027;51.030;13.812;2023-06-10T13:08:31;4.93;;;3.47;;
21729;SDS011;11027;51.030;13.812;2023-06-10T13:10:57;6.47;;;3.17;;
21729;SDS011;11027;51.030;13.812;2023-06-10T13:13:23;6.97;;;3.33;;
21729;SDS011;11027;51.030;13.812;2023-06-10T13:15:48;4.53;;;3.13;;
21729;SDS011;11027;51.030;13.812;2023-06-10T13:18:14;3.55;;;3.13;;
21729;SDS011;11027;51.030;13.812;2023-06-10T13:20:40;6.07;;;3.03;;
21729;SDS011;11027;51.030;13.812;2023-06-10T13:23:05;5.45;;;3.45;;
21729;SDS011;11027;51.030;13.812;2023-06-10T13:25:30;4.43;;;2.90;;
21729;SDS011;11027;51.030;13.812;2023-06-10T13:27:56;7.53;;;3.27;;
21729;SDS011;11027;51.030;13.812;2023-06-10T13:30:21;5.28;;;3.13;;
21729;SDS011;11027;51.030;13.812;2023-06-10T13:32:46;3.27;;;2.43;;
21729;SDS011;11027;51.030;13.812;2023-06-10T13:35:12;3.20;;;2.33;;
21729;SDS011;11027;51.030;13.812;2023-06-10T13:37:37;5.88;;;2.70;;
21729;SDS011;11027;51.030;13.812;2023-06-10T13:40:02;5.63;;;2.50;;
21729;SDS011;11027;51.030;13.812;2023-06-10T13:42:28;7.32;;;2.45;;
21729;SDS011;11027;51.030;13.812;2023-06-10T13:44:54;3.72;;;2.20;;
21729;SDS011;11027;51.030;13.812;2023-06-10T13:47:19;3.30;;;2.38;;
21729;SDS011;11027;51.030;13.812;2023-06-10T13:49:45;5.15;;;2.33;;
21729;SDS011;11027;51.030;13.812;2023-06-10T13:52:11;2.58;;;2.30;;
21729;SDS011;11027;51.030;13.812;2023-06-10T13:54:36;4.10;;;2.20;;
21729;SDS011;11027;51.030;13.812;2023-06-10T13:57:02;3.65;;;2.17;;
21729;SDS011;11027;51.030;13.812;2023-06-10T13:59:27;2.88;;;2.20;;
21729;SDS011;11027;51.030;13.812;2023-06-10T14:01:53;3.57;;;2.20;;
21729;SDS011;11027;51.030;13.812;2023-06-10T14:04:18;4.27;;;2.00;;
21729;SDS011;11027;51.030;13.812;2023-06-10T14:06:43;5.13;;;1.90;;
21729;SDS011;11027;51.030;13.812;2023-06-10T14:09:09;5.82;;;2.10;;
21729;SDS011;11027;51.030;13.812;2023-06-10T14:11:35;5.00;;;2.40;;
21729;SDS011;11027;51.030;13.812;2023-06-10T14:14:00;2.97;;;2.37;;
21729;SDS011;11027;51.030;13.812;2023-06-10T14:16:26;3.83;;;2.55;;
21729;SDS011;11027;51.030;13.812;2023-06-10T14:18:51;4.68;;;2.40;;
21729;SDS011;11027;51.030;13.812;2023-06-10T14:21:16;4.60;;;2.30;;
21729;SDS011;11027;51.030;13.812;2023-06-10T14:23:42;3.42;;;2.35;;
21729;SDS011;11027;51.030;13.812;2023-06-10T14:26:08;7.25;;;2.35;;
21729;SDS011;11027;51.030;13.812;2023-06-10T14:28:34;3.30;;;2.40;;
21729;SDS011;11027;51.030;13.812;2023-06-10T14:30:59;5.03;;;2.17;;
21729;SDS011;11027;51.030;13.812;2023-06-10T14:33:24;4.97;;;2.33;;
21729;SDS011;11027;51.030;13.812;2023-06-10T14:35:50;3.40;;;2.20;;
21729;SDS011;11027;51.030;13.812;2023-06-10T14:38:15;2.30;;;2.10;;
21729;SDS011;11027;51.030;13.812;2023-06-10T14:40:40;2.85;;;1.95;;
21729;SDS011;11027;51.030;13.812;2023-06-10T14:43:05;2.53;;;1.90;;
21729;SDS011;11027;51.030;13.812;2023-06-10T14:45:35;6.10;;;2.10;;
21729;SDS011;11027;51.030;13.812;2023-06-10T14:48:04;5.38;;;2.20;;
21729;SDS011;11027;51.030;13.812;2023-06-10T14:50:30;2.53;;;2.05;;
21729;SDS011;11027;51.030;13.812;2023-06-10T14:52:55;5.20;;;2.10;;
21729;SDS011;11027;51.030;13.812;2023-06-10T14:55:20;6.35;;;2.15;;
21729;SDS011;11027;51.030;13.812;2023-06-10T14:57:47;7.60;;;2.38;;